sensor_id;sensor_type;location;lat;lon;timestamp;P1;durP1;ratioP1;P2;durP2;ratioP2
5217;SDS011;26539;51.064;6.346;2022-11-20T00:01:44;23.97;;;16.20;;
5217;SDS011;26539;51.064;6.346;2022-11-20T00:04:10;20.83;;;15.30;;
5217;SDS011;26539;51.064;6.346;2022-11-20T00:06:37;22.05;;;15.02;;
5217;SDS011;26539;51.064;6.346;2022-11-20T00:09:02;23.90;;;14.43;;
5217;SDS011;26539;51.064;6.346;2022-11-20T00:11:30;18.73;;;13.85;;
5217;SDS011;26539;51.064;6.346;2022-11-20T00:13:57;20.27;;;13.60;;
5217;SDS011;26539;51.064;6.346;2022-11-20T00:16:24;22.10;;;14.15;;
5217;SDS011;26539;51.064;6.346;2022-11-20T00:18:52;23.40;;;15.10;;
5217;SDS011;26539;51.064;6.346;2022-11-20T00:21:19;22.20;;;15.23;;
5217;SDS011;26539;51.064;6.346;2022-11-20T00:23:46;22.73;;;15.45;;
5217;SDS011;26539;51.064;6.346;2022-11-20T00:26:15;21.65;;;15.48;;
5217;SDS011;26539;51.064;6.346;2022-11-20T00:28:42;19.45;;;13.63;;
5217;SDS011;26539;51.064;6.346;2022-11-20T00:31:13;22.80;;;13.82;;
5217;SDS011;26539;51.064;6.346;2022-11-20T00:33:40;20.67;;;14.65;;
5217;SDS011;26539;51.064;6.346;2022-11-20T00:36:10;23.42;;;16.35;;
5217;SDS011;26539;51.064;6.346;2022-11-20T00:38:38;23.35;;;14.95;;
5217;SDS011;26539;51.064;6.346;2022-11-20T00:41:04;23.27;;;15.33;;
5217;SDS011;26539;51.064;6.346;2022-11-20T00:43:32;23.58;;;15.27;;
5217;SDS011;26539;51.064;6.346;2022-11-20T00:48:33;21.05;;;14.85;;
5217;SDS011;26539;51.064;6.346;2022-11-20T00:50:59;22.80;;;15.37;;
5217;SDS011;26539;51.064;6.346;2022-11-20T00:53:25;20.87;;;14.23;;
5217;SDS011;26539;51.064;6.346;2022-11-20T00:56:07;23.75;;;15.20;;
5217;SDS011;26539;51.064;6.346;2022-11-20T00:58:36;23.70;;;15.50;;
5217;SDS011;26539;51.064;6.346;2022-11-20T01:01:04;22.48;;;15.07;;
5217;SDS011;26539;51.064;6.346;2022-11-20T01:03:47;21.02;;;14.40;;
5217;SDS011;26539;51.064;6.346;2022-11-20T01:06:15;20.88;;;15.10;;
5217;SDS011;26539;51.064;6.346;2022-11-20T01:09:10;27.67;;;14.75;;
5217;SDS011;26539;51.064;6.346;2022-11-20T01:11:38;22.23;;;16.40;;
5217;SDS011;26539;51.064;6.346;2022-11-20T01:14:06;22.10;;;15.77;;
5217;SDS011;26539;51.064;6.346;2022-11-20T01:16:48;26.10;;;15.80;;
5217;SDS011;26539;51.064;6.346;2022-11-20T01:19:16;24.52;;;15.57;;
5217;SDS011;26539;51.064;6.346;2022-11-20T01:21:44;22.58;;;16.05;;
5217;SDS011;26539;51.064;6.346;2022-11-20T01:24:12;21.70;;;14.27;;
5217;SDS011;26539;51.064;6.346;2022-11-20T01:26:39;22.45;;;15.98;;
5217;SDS011;26539;51.064;6.346;2022-11-20T01:29:07;22.35;;;14.95;;
5217;SDS011;26539;51.064;6.346;2022-11-20T01:31:36;22.85;;;15.13;;
5217;SDS011;26539;51.064;6.346;2022-11-20T01:34:06;23.10;;;15.20;;
5217;SDS011;26539;51.064;6.346;2022-11-20T01:36:35;21.10;;;15.40;;
5217;SDS011;26539;51.064;6.346;2022-11-20T01:39:04;28.52;;;17.25;;
5217;SDS011;26539;51.064;6.346;2022-11-20T01:41:44;24.08;;;16.38;;
5217;SDS011;26539;51.064;6.346;2022-11-20T01:47:34;22.25;;;14.95;;
5217;SDS011;26539;51.064;6.346;2022-11-20T02:36:34;24.58;;;15.48;;
5217;SDS011;26539;51.064;6.346;2022-11-20T02:39:03;23.48;;;14.75;;
5217;SDS011;26539;51.064;6.346;2022-11-20T02:41:36;24.10;;;16.00;;
5217;SDS011;26539;51.064;6.346;2022-11-20T02:44:02;21.88;;;15.80;;
5217;SDS011;26539;51.064;6.346;2022-11-20T02:46:29;26.58;;;16.55;;
5217;SDS011;26539;51.064;6.346;2022-11-20T02:48:55;23.13;;;16.67;;
5217;SDS011;26539;51.064;6.346;2022-11-20T02:51:24;22.57;;;15.17;;
5217;SDS011;26539;51.064;6.346;2022-11-20T02:53:49;26.88;;;17.27;;
5217;SDS011;26539;51.064;6.346;2022-11-20T02:56:15;23.30;;;15.93;;
5217;SDS011;26539;51.064;6.346;2022-11-20T02:58:41;21.50;;;14.70;;
5217;SDS011;26539;51.064;6.346;2022-11-20T03:01:06;21.80;;;14.93;;
5217;SDS011;26539;51.064;6.346;2022-11-20T03:03:34;23.63;;;15.70;;
5217;SDS011;26539;51.064;6.346;2022-11-20T03:06:00;24.50;;;16.20;;
5217;SDS011;26539;51.064;6.346;2022-11-20T03:08:25;25.80;;;16.83;;
5217;SDS011;26539;51.064;6.346;2022-11-20T03:10:51;27.10;;;17.67;;
5217;SDS011;26539;51.064;6.346;2022-11-20T03:13:17;28.20;;;17.07;;
5217;SDS011;26539;51.064;6.346;2022-11-20T03:15:42;27.53;;;16.60;;
5217;SDS011;26539;51.064;6.346;2022-11-20T03:18:07;23.93;;;15.20;;
5217;SDS011;26539;51.064;6.346;2022-11-20T03:20:33;25.20;;;17.73;;
5217;SDS011;26539;51.064;6.346;2022-11-20T03:22:59;24.27;;;16.23;;
5217;SDS011;26539;51.064;6.346;2022-11-20T03:25:25;25.97;;;17.57;;
5217;SDS011;26539;51.064;6.346;2022-11-20T03:27:50;26.30;;;15.30;;
5217;SDS011;26539;51.064;6.346;2022-11-20T03:30:16;24.13;;;16.57;;
5217;SDS011;26539;51.064;6.346;2022-11-20T03:32:41;25.80;;;15.70;;
5217;SDS011;26539;51.064;6.346;2022-11-20T03:35:07;23.80;;;16.33;;
5217;SDS011;26539;51.064;6.346;2022-11-20T03:37:33;25.27;;;17.45;;
5217;SDS011;26539;51.064;6.346;2022-11-20T03:39:59;26.07;;;15.80;;
5217;SDS011;26539;51.064;6.346;2022-11-20T03:42:24;25.60;;;16.93;;
5217;SDS011;26539;51.064;6.346;2022-11-20T03:45:08;24.40;;;15.68;;
5217;SDS011;26539;51.064;6.346;2022-11-20T03:47:34;28.83;;;15.87;;
5217;SDS011;26539;51.064;6.346;2022-11-20T03:50:00;20.10;;;14.00;;
5217;SDS011;26539;51.064;6.346;2022-11-20T03:52:25;27.70;;;16.80;;
5217;SDS011;26539;51.064;6.346;2022-11-20T03:54:51;23.80;;;15.90;;
5217;SDS011;26539;51.064;6.346;2022-11-20T03:57:16;24.03;;;16.63;;
5217;SDS011;26539;51.064;6.346;2022-11-20T03:59:41;23.47;;;15.90;;
5217;SDS011;26539;51.064;6.346;2022-11-20T04:02:07;28.03;;;16.63;;
5217;SDS011;26539;51.064;6.346;2022-11-20T04:04:32;21.80;;;14.90;;
5217;SDS011;26539;51.064;6.346;2022-11-20T04:06:58;24.50;;;16.07;;
5217;SDS011;26539;51.064;6.346;2022-11-20T04:09:23;27.17;;;16.07;;
5217;SDS011;26539;51.064;6.346;2022-11-20T04:11:49;27.70;;;15.97;;
5217;SDS011;26539;51.064;6.346;2022-11-20T04:14:15;25.23;;;16.63;;
5217;SDS011;26539;51.064;6.346;2022-11-20T04:16:41;23.20;;;17.10;;
5217;SDS011;26539;51.064;6.346;2022-11-20T04:19:13;23.52;;;14.60;;
5217;SDS011;26539;51.064;6.346;2022-11-20T04:21:42;24.17;;;15.52;;
5217;SDS011;26539;51.064;6.346;2022-11-20T04:24:09;20.80;;;14.85;;
5217;SDS011;26539;51.064;6.346;2022-11-20T04:26:35;24.00;;;16.25;;
5217;SDS011;26539;51.064;6.346;2022-11-20T04:29:01;22.08;;;14.45;;
5217;SDS011;26539;51.064;6.346;2022-11-20T04:31:28;24.48;;;15.75;;
5217;SDS011;26539;51.064;6.346;2022-11-20T04:33:55;24.40;;;16.15;;
5217;SDS011;26539;51.064;6.346;2022-11-20T04:36:26;22.58;;;15.65;;
5217;SDS011;26539;51.064;6.346;2022-11-20T04:38:53;21.85;;;15.52;;
5217;SDS011;26539;51.064;6.346;2022-11-20T04:41:27;21.88;;;15.32;;
5217;SDS011;26539;51.064;6.346;2022-11-20T04:43:55;20.77;;;14.68;;
5217;SDS011;26539;51.064;6.346;2022-11-20T04:46:24;24.75;;;16.85;;
5217;SDS011;26539;51.064;6.346;2022-11-20T04:48:50;27.60;;;17.75;;
5217;SDS011;26539;51.064;6.346;2022-11-20T04:51:16;24.20;;;14.70;;
5217;SDS011;26539;51.064;6.346;2022-11-20T04:53:42;24.40;;;16.43;;
5217;SDS011;26539;51.064;6.346;2022-11-20T04:56:08;22.37;;;16.03;;
5217;SDS011;26539;51.064;6.346;2022-11-20T04:58:35;23.42;;;16.23;;
5217;SDS011;26539;51.064;6.346;2022-11-20T05:01:05;25.73;;;17.30;;
5217;SDS011;26539;51.064;6.346;2022-11-20T05:03:41;23.00;;;16.17;;
5217;SDS011;26539;51.064;6.346;2022-11-20T05:06:09;22.23;;;16.58;;
5217;SDS011;26539;51.064;6.346;2022-11-20T05:08:36;21.90;;;16.33;;
5217;SDS011;26539;51.064;6.346;2022-11-20T05:11:06;24.00;;;15.57;;
5217;SDS011;26539;51.064;6.346;2022-11-20T05:13:33;23.08;;;16.55;;
5217;SDS011;26539;51.064;6.346;2022-11-20T05:16:03;22.73;;;16.38;;
5217;SDS011;26539;51.064;6.346;2022-11-20T05:18:37;28.75;;;16.63;;
5217;SDS011;26539;51.064;6.346;2022-11-20T05:21:03;24.42;;;17.25;;
5217;SDS011;26539;51.064;6.346;2022-11-20T05:23:30;26.10;;;18.30;;
5217;SDS011;26539;51.064;6.346;2022-11-20T05:25:57;23.42;;;17.00;;
5217;SDS011;26539;51.064;6.346;2022-11-20T05:28:23;22.30;;;16.35;;
5217;SDS011;26539;51.064;6.346;2022-11-20T05:30:49;25.02;;;16.35;;
5217;SDS011;26539;51.064;6.346;2022-11-20T05:33:15;26.87;;;17.30;;
5217;SDS011;26539;51.064;6.346;2022-11-20T05:35:41;20.27;;;15.13;;
5217;SDS011;26539;51.064;6.346;2022-11-20T05:38:06;25.50;;;16.87;;
5217;SDS011;26539;51.064;6.346;2022-11-20T05:40:32;22.60;;;17.37;;
5217;SDS011;26539;51.064;6.346;2022-11-20T05:42:57;21.60;;;15.60;;
5217;SDS011;26539;51.064;6.346;2022-11-20T05:45:24;23.27;;;17.65;;
5217;SDS011;26539;51.064;6.346;2022-11-20T05:47:49;25.43;;;17.33;;
5217;SDS011;26539;51.064;6.346;2022-11-20T05:50:15;25.10;;;17.47;;
5217;SDS011;26539;51.064;6.346;2022-11-20T05:52:40;26.80;;;18.13;;
5217;SDS011;26539;51.064;6.346;2022-11-20T05:55:06;26.60;;;16.73;;
5217;SDS011;26539;51.064;6.346;2022-11-20T05:57:32;26.45;;;16.85;;
5217;SDS011;26539;51.064;6.346;2022-11-20T05:59:58;25.50;;;16.80;;
5217;SDS011;26539;51.064;6.346;2022-11-20T06:09:23;28.95;;;17.67;;
5217;SDS011;26539;51.064;6.346;2022-11-20T06:12:07;23.23;;;16.00;;
5217;SDS011;26539;51.064;6.346;2022-11-20T06:18:12;31.65;;;16.83;;
5217;SDS011;26539;51.064;6.346;2022-11-20T06:59:16;21.70;;;16.02;;
5217;SDS011;26539;51.064;6.346;2022-11-20T07:05:29;27.25;;;18.80;;
5217;SDS011;26539;51.064;6.346;2022-11-20T07:12:08;28.67;;;17.52;;
5217;SDS011;26539;51.064;6.346;2022-11-20T07:14:49;28.90;;;19.05;;
5217;SDS011;26539;51.064;6.346;2022-11-20T07:17:25;42.60;;;20.08;;
5217;SDS011;26539;51.064;6.346;2022-11-20T07:20:19;30.25;;;18.13;;
5217;SDS011;26539;51.064;6.346;2022-11-20T07:23:09;31.27;;;17.00;;
5217;SDS011;26539;51.064;6.346;2022-11-20T07:25:50;35.40;;;19.23;;
5217;SDS011;26539;51.064;6.346;2022-11-20T07:31:42;38.05;;;19.17;;
5217;SDS011;26539;51.064;6.346;2022-11-20T07:38:38;35.63;;;18.73;;
5217;SDS011;26539;51.064;6.346;2022-11-20T07:49:01;57.50;;;22.00;;
5217;SDS011;26539;51.064;6.346;2022-11-20T07:57:55;51.05;;;22.95;;
5217;SDS011;26539;51.064;6.346;2022-11-20T08:04:04;47.90;;;22.25;;
5217;SDS011;26539;51.064;6.346;2022-11-20T08:12:59;48.55;;;26.25;;
5217;SDS011;26539;51.064;6.346;2022-11-20T08:22:37;47.20;;;22.08;;
5217;SDS011;26539;51.064;6.346;2022-11-20T08:29:10;45.60;;;22.58;;
5217;SDS011;26539;51.064;6.346;2022-11-20T08:35:02;41.88;;;22.90;;
5217;SDS011;26539;51.064;6.346;2022-11-20T08:58:32;41.17;;;20.92;;
5217;SDS011;26539;51.064;6.346;2022-11-20T09:01:20;35.15;;;18.75;;
5217;SDS011;26539;51.064;6.346;2022-11-20T09:39:34;32.70;;;18.20;;
5217;SDS011;26539;51.064;6.346;2022-11-20T09:43:03;27.92;;;17.10;;
5217;SDS011;26539;51.064;6.346;2022-11-20T10:00:46;28.25;;;16.55;;
5217;SDS011;26539;51.064;6.346;2022-11-20T10:11:00;27.23;;;16.65;;
5217;SDS011;26539;51.064;6.346;2022-11-20T10:36:17;28.60;;;17.52;;
5217;SDS011;26539;51.064;6.346;2022-11-20T10:49:59;30.05;;;18.48;;
5217;SDS011;26539;51.064;6.346;2022-11-20T12:01:58;37.28;;;20.85;;
5217;SDS011;26539;51.064;6.346;2022-11-20T12:04:46;36.58;;;20.48;;
5217;SDS011;26539;51.064;6.346;2022-11-20T12:09:52;33.42;;;20.90;;
5217;SDS011;26539;51.064;6.346;2022-11-20T12:12:27;33.47;;;19.48;;
5217;SDS011;26539;51.064;6.346;2022-11-20T12:15:41;31.90;;;20.98;;
5217;SDS011;26539;51.064;6.346;2022-11-20T12:18:19;42.80;;;27.55;;
5217;SDS011;26539;51.064;6.346;2022-11-20T12:23:33;34.20;;;21.30;;
5217;SDS011;26539;51.064;6.346;2022-11-20T12:35:23;34.15;;;20.95;;
5217;SDS011;26539;51.064;6.346;2022-11-20T12:44:04;40.08;;;22.92;;
5217;SDS011;26539;51.064;6.346;2022-11-20T12:52:38;41.88;;;23.83;;
5217;SDS011;26539;51.064;6.346;2022-11-20T12:55:31;38.70;;;24.52;;
5217;SDS011;26539;51.064;6.346;2022-11-20T12:58:12;40.38;;;21.48;;
5217;SDS011;26539;51.064;6.346;2022-11-20T13:03:56;39.55;;;22.80;;
5217;SDS011;26539;51.064;6.346;2022-11-20T13:06:30;37.77;;;21.50;;
5217;SDS011;26539;51.064;6.346;2022-11-20T13:08:56;38.13;;;22.17;;
5217;SDS011;26539;51.064;6.346;2022-11-20T13:11:32;45.00;;;23.00;;
5217;SDS011;26539;51.064;6.346;2022-11-20T13:14:27;40.92;;;23.52;;
5217;SDS011;26539;51.064;6.346;2022-11-20T13:17:24;35.08;;;19.70;;
5217;SDS011;26539;51.064;6.346;2022-11-20T13:19:58;36.60;;;21.67;;
5217;SDS011;26539;51.064;6.346;2022-11-20T13:22:45;34.53;;;20.50;;
5217;SDS011;26539;51.064;6.346;2022-11-20T13:25:29;37.00;;;20.58;;
5217;SDS011;26539;51.064;6.346;2022-11-20T13:28:03;34.60;;;19.50;;
5217;SDS011;26539;51.064;6.346;2022-11-20T13:30:50;37.10;;;19.55;;
5217;SDS011;26539;51.064;6.346;2022-11-20T13:33:27;35.03;;;19.70;;
5217;SDS011;26539;51.064;6.346;2022-11-20T13:36:02;34.83;;;19.15;;
5217;SDS011;26539;51.064;6.346;2022-11-20T13:38:43;37.20;;;20.97;;
5217;SDS011;26539;51.064;6.346;2022-11-20T13:41:11;31.30;;;17.70;;
5217;SDS011;26539;51.064;6.346;2022-11-20T13:43:54;30.85;;;21.20;;
5217;SDS011;26539;51.064;6.346;2022-11-20T13:46:23;34.85;;;21.08;;
5217;SDS011;26539;51.064;6.346;2022-11-20T13:48:49;92.40;;;56.05;;
5217;SDS011;26539;51.064;6.346;2022-11-20T13:59:57;34.58;;;20.67;;
5217;SDS011;26539;51.064;6.346;2022-11-20T14:02:33;34.10;;;19.70;;
5217;SDS011;26539;51.064;6.346;2022-11-20T14:04:58;28.30;;;17.50;;
5217;SDS011;26539;51.064;6.346;2022-11-20T14:07:35;28.00;;;17.80;;
5217;SDS011;26539;51.064;6.346;2022-11-20T14:10:04;35.47;;;19.33;;
5217;SDS011;26539;51.064;6.346;2022-11-20T14:12:31;29.50;;;18.70;;
5217;SDS011;26539;51.064;6.346;2022-11-20T14:14:58;27.95;;;19.50;;
5217;SDS011;26539;51.064;6.346;2022-11-20T14:17:32;30.50;;;19.23;;
5217;SDS011;26539;51.064;6.346;2022-11-20T14:20:02;31.83;;;20.52;;
5217;SDS011;26539;51.064;6.346;2022-11-20T14:22:31;32.40;;;19.83;;
5217;SDS011;26539;51.064;6.346;2022-11-20T14:25:18;28.97;;;19.70;;
5217;SDS011;26539;51.064;6.346;2022-11-20T14:27:50;29.80;;;18.17;;
5217;SDS011;26539;51.064;6.346;2022-11-20T14:30:19;25.52;;;16.42;;
5217;SDS011;26539;51.064;6.346;2022-11-20T14:32:46;30.23;;;18.27;;
5217;SDS011;26539;51.064;6.346;2022-11-20T14:35:23;26.90;;;19.38;;
5217;SDS011;26539;51.064;6.346;2022-11-20T14:37:51;29.27;;;18.60;;
5217;SDS011;26539;51.064;6.346;2022-11-20T14:40:33;33.83;;;20.75;;
5217;SDS011;26539;51.064;6.346;2022-11-20T14:43:00;33.70;;;20.63;;
5217;SDS011;26539;51.064;6.346;2022-11-20T14:45:29;56.65;;;38.63;;
5217;SDS011;26539;51.064;6.346;2022-11-20T14:47:55;41.63;;;28.93;;
5217;SDS011;26539;51.064;6.346;2022-11-20T14:50:24;74.68;;;49.83;;
5217;SDS011;26539;51.064;6.346;2022-11-20T14:52:54;45.95;;;23.95;;
5217;SDS011;26539;51.064;6.346;2022-11-20T14:58:05;52.05;;;26.63;;
5217;SDS011;26539;51.064;6.346;2022-11-20T15:00:53;68.35;;;37.08;;
5217;SDS011;26539;51.064;6.346;2022-11-20T15:03:30;74.15;;;37.00;;
5217;SDS011;26539;51.064;6.346;2022-11-20T15:06:00;61.33;;;27.70;;
5217;SDS011;26539;51.064;6.346;2022-11-20T15:08:26;70.27;;;29.83;;
5217;SDS011;26539;51.064;6.346;2022-11-20T15:10:51;121.70;;;68.60;;
5217;SDS011;26539;51.064;6.346;2022-11-20T15:15:58;78.65;;;33.65;;
5217;SDS011;26539;51.064;6.346;2022-11-20T15:18:38;102.88;;;35.40;;
5217;SDS011;26539;51.064;6.346;2022-11-20T15:21:10;97.40;;;35.55;;
5217;SDS011;26539;51.064;6.346;2022-11-20T15:23:42;98.90;;;35.45;;
5217;SDS011;26539;51.064;6.346;2022-11-20T15:26:08;117.88;;;36.45;;
5217;SDS011;26539;51.064;6.346;2022-11-20T15:29:04;91.40;;;31.40;;
5217;SDS011;26539;51.064;6.346;2022-11-20T15:31:50;117.23;;;40.50;;
5217;SDS011;26539;51.064;6.346;2022-11-20T15:37:24;147.55;;;55.88;;
5217;SDS011;26539;51.064;6.346;2022-11-20T15:39:52;196.98;;;66.05;;
5217;SDS011;26539;51.064;6.346;2022-11-20T15:42:47;162.82;;;53.75;;
5217;SDS011;26539;51.064;6.346;2022-11-20T15:45:48;145.02;;;50.30;;
5217;SDS011;26539;51.064;6.346;2022-11-20T15:48:19;101.32;;;39.53;;
5217;SDS011;26539;51.064;6.346;2022-11-20T15:50:51;137.57;;;78.72;;
5217;SDS011;26539;51.064;6.346;2022-11-20T15:53:23;91.35;;;41.53;;
5217;SDS011;26539;51.064;6.346;2022-11-20T15:55:51;100.80;;;52.38;;
5217;SDS011;26539;51.064;6.346;2022-11-20T15:58:22;104.10;;;44.33;;
5217;SDS011;26539;51.064;6.346;2022-11-20T16:01:08;113.65;;;43.38;;
5217;SDS011;26539;51.064;6.346;2022-11-20T16:03:44;108.25;;;38.00;;
5217;SDS011;26539;51.064;6.346;2022-11-20T16:06:14;82.57;;;34.33;;
5217;SDS011;26539;51.064;6.346;2022-11-20T16:08:54;130.55;;;69.78;;
5217;SDS011;26539;51.064;6.346;2022-11-20T16:11:22;76.68;;;28.48;;
5217;SDS011;26539;51.064;6.346;2022-11-20T16:13:48;92.27;;;37.20;;
5217;SDS011;26539;51.064;6.346;2022-11-20T16:16:33;74.43;;;32.47;;
5217;SDS011;26539;51.064;6.346;2022-11-20T16:19:00;79.90;;;34.78;;
5217;SDS011;26539;51.064;6.346;2022-11-20T16:22:04;93.60;;;36.17;;
5217;SDS011;26539;51.064;6.346;2022-11-20T16:24:34;111.95;;;41.75;;
5217;SDS011;26539;51.064;6.346;2022-11-20T16:27:02;95.10;;;31.65;;
5217;SDS011;26539;51.064;6.346;2022-11-20T16:29:30;83.82;;;30.63;;
5217;SDS011;26539;51.064;6.346;2022-11-20T16:32:00;87.47;;;33.63;;
5217;SDS011;26539;51.064;6.346;2022-11-20T16:34:26;77.15;;;33.17;;
5217;SDS011;26539;51.064;6.346;2022-11-20T16:36:51;104.40;;;52.17;;
5217;SDS011;26539;51.064;6.346;2022-11-20T16:39:17;94.53;;;37.33;;
5217;SDS011;26539;51.064;6.346;2022-11-20T16:41:42;142.77;;;55.20;;
5217;SDS011;26539;51.064;6.346;2022-11-20T16:44:08;120.60;;;53.50;;
5217;SDS011;26539;51.064;6.346;2022-11-20T16:46:35;78.03;;;31.77;;
5217;SDS011;26539;51.064;6.346;2022-11-20T16:49:01;81.97;;;36.00;;
5217;SDS011;26539;51.064;6.346;2022-11-20T16:51:29;72.65;;;33.55;;
5217;SDS011;26539;51.064;6.346;2022-11-20T16:54:00;82.15;;;38.42;;
5217;SDS011;26539;51.064;6.346;2022-11-20T16:56:29;77.75;;;25.73;;
5217;SDS011;26539;51.064;6.346;2022-11-20T16:58:57;71.00;;;28.58;;
5217;SDS011;26539;51.064;6.346;2022-11-20T17:01:26;67.25;;;34.85;;
5217;SDS011;26539;51.064;6.346;2022-11-20T17:03:56;74.63;;;36.30;;
5217;SDS011;26539;51.064;6.346;2022-11-20T17:06:38;56.33;;;29.55;;
5217;SDS011;26539;51.064;6.346;2022-11-20T17:09:12;53.72;;;31.08;;
5217;SDS011;26539;51.064;6.346;2022-11-20T17:14:35;38.70;;;18.85;;
5217;SDS011;26539;51.064;6.346;2022-11-20T17:17:30;34.97;;;15.30;;
5217;SDS011;26539;51.064;6.346;2022-11-20T17:20:39;28.58;;;13.95;;
5217;SDS011;26539;51.064;6.346;2022-11-20T17:26:57;18.50;;;11.18;;
5217;SDS011;26539;51.064;6.346;2022-11-20T17:30:01;15.95;;;10.10;;
5217;SDS011;26539;51.064;6.346;2022-11-20T17:33:28;26.45;;;11.20;;
5217;SDS011;26539;51.064;6.346;2022-11-20T17:35:58;16.67;;;10.18;;
5217;SDS011;26539;51.064;6.346;2022-11-20T17:38:44;15.00;;;9.43;;
5217;SDS011;26539;51.064;6.346;2022-11-20T17:41:14;18.10;;;9.80;;
5217;SDS011;26539;51.064;6.346;2022-11-20T17:47:02;17.27;;;11.15;;
5217;SDS011;26539;51.064;6.346;2022-11-20T17:49:28;36.63;;;15.45;;
5217;SDS011;26539;51.064;6.346;2022-11-20T17:51:54;30.20;;;14.00;;
5217;SDS011;26539;51.064;6.346;2022-11-20T17:54:43;24.25;;;13.63;;
5217;SDS011;26539;51.064;6.346;2022-11-20T17:57:15;25.05;;;15.63;;
5217;SDS011;26539;51.064;6.346;2022-11-20T18:00:02;28.55;;;16.83;;
5217;SDS011;26539;51.064;6.346;2022-11-20T18:02:48;32.70;;;16.75;;
5217;SDS011;26539;51.064;6.346;2022-11-20T18:05:19;29.33;;;17.33;;
5217;SDS011;26539;51.064;6.346;2022-11-20T18:07:44;26.30;;;16.37;;
5217;SDS011;26539;51.064;6.346;2022-11-20T18:10:13;34.27;;;17.57;;
5217;SDS011;26539;51.064;6.346;2022-11-20T18:12:38;35.58;;;16.90;;
5217;SDS011;26539;51.064;6.346;2022-11-20T18:15:08;36.58;;;18.48;;
5217;SDS011;26539;51.064;6.346;2022-11-20T18:17:34;42.30;;;18.40;;
5217;SDS011;26539;51.064;6.346;2022-11-20T18:20:04;33.45;;;17.35;;
5217;SDS011;26539;51.064;6.346;2022-11-20T18:22:43;32.92;;;17.15;;
5217;SDS011;26539;51.064;6.346;2022-11-20T18:25:09;32.65;;;16.55;;
5217;SDS011;26539;51.064;6.346;2022-11-20T18:27:38;37.25;;;16.02;;
5217;SDS011;26539;51.064;6.346;2022-11-20T18:30:05;38.40;;;16.98;;
5217;SDS011;26539;51.064;6.346;2022-11-20T18:32:34;30.00;;;15.85;;
5217;SDS011;26539;51.064;6.346;2022-11-20T18:35:29;39.72;;;15.50;;
5217;SDS011;26539;51.064;6.346;2022-11-20T18:37:54;32.83;;;15.35;;
5217;SDS011;26539;51.064;6.346;2022-11-20T18:40:20;33.23;;;15.80;;
5217;SDS011;26539;51.064;6.346;2022-11-20T18:43:08;35.22;;;15.63;;
5217;SDS011;26539;51.064;6.346;2022-11-20T18:46:03;27.23;;;13.10;;
5217;SDS011;26539;51.064;6.346;2022-11-20T18:48:59;38.13;;;13.93;;
5217;SDS011;26539;51.064;6.346;2022-11-20T18:51:53;34.17;;;16.42;;
5217;SDS011;26539;51.064;6.346;2022-11-20T18:54:40;43.15;;;19.25;;
5217;SDS011;26539;51.064;6.346;2022-11-20T18:57:37;43.33;;;17.92;;
5217;SDS011;26539;51.064;6.346;2022-11-20T19:00:44;43.75;;;17.90;;
5217;SDS011;26539;51.064;6.346;2022-11-20T19:03:11;37.30;;;14.32;;
5217;SDS011;26539;51.064;6.346;2022-11-20T19:05:39;33.35;;;14.25;;
5217;SDS011;26539;51.064;6.346;2022-11-20T19:08:43;25.63;;;13.23;;
5217;SDS011;26539;51.064;6.346;2022-11-20T19:11:58;36.42;;;13.43;;
5217;SDS011;26539;51.064;6.346;2022-11-20T19:14:38;35.42;;;14.80;;
5217;SDS011;26539;51.064;6.346;2022-11-20T19:20:40;35.47;;;13.15;;
5217;SDS011;26539;51.064;6.346;2022-11-20T19:26:38;25.63;;;12.13;;
5217;SDS011;26539;51.064;6.346;2022-11-20T19:29:43;32.90;;;12.52;;
5217;SDS011;26539;51.064;6.346;2022-11-20T19:32:57;31.85;;;13.95;;
5217;SDS011;26539;51.064;6.346;2022-11-20T19:35:46;24.40;;;13.43;;
5217;SDS011;26539;51.064;6.346;2022-11-20T19:38:21;24.30;;;11.30;;
5217;SDS011;26539;51.064;6.346;2022-11-20T19:41:11;24.80;;;11.05;;
5217;SDS011;26539;51.064;6.346;2022-11-20T19:43:43;32.72;;;12.13;;
5217;SDS011;26539;51.064;6.346;2022-11-20T19:46:12;33.17;;;12.38;;
5217;SDS011;26539;51.064;6.346;2022-11-20T19:48:47;21.45;;;10.20;;
5217;SDS011;26539;51.064;6.346;2022-11-20T19:51:17;34.70;;;10.03;;
5217;SDS011;26539;51.064;6.346;2022-11-20T19:54:17;31.25;;;9.60;;
5217;SDS011;26539;51.064;6.346;2022-11-20T19:56:47;19.50;;;7.93;;
5217;SDS011;26539;51.064;6.346;2022-11-20T19:59:37;22.15;;;7.60;;
5217;SDS011;26539;51.064;6.346;2022-11-20T20:02:22;21.05;;;8.05;;
5217;SDS011;26539;51.064;6.346;2022-11-20T20:05:21;23.60;;;8.45;;
5217;SDS011;26539;51.064;6.346;2022-11-20T20:07:51;21.25;;;7.75;;
5217;SDS011;26539;51.064;6.346;2022-11-20T20:13:23;19.83;;;6.73;;
5217;SDS011;26539;51.064;6.346;2022-11-20T20:16:13;27.17;;;8.98;;
5217;SDS011;26539;51.064;6.346;2022-11-20T20:18:43;25.52;;;6.85;;
5217;SDS011;26539;51.064;6.346;2022-11-20T20:21:20;24.15;;;6.95;;
5217;SDS011;26539;51.064;6.346;2022-11-20T20:23:49;24.92;;;6.57;;
5217;SDS011;26539;51.064;6.346;2022-11-20T20:26:24;19.08;;;6.47;;
5217;SDS011;26539;51.064;6.346;2022-11-20T20:29:05;28.73;;;8.05;;
5217;SDS011;26539;51.064;6.346;2022-11-20T20:31:48;21.30;;;6.18;;
5217;SDS011;26539;51.064;6.346;2022-11-20T20:34:35;13.47;;;6.17;;
5217;SDS011;26539;51.064;6.346;2022-11-20T20:37:07;22.08;;;5.75;;
5217;SDS011;26539;51.064;6.346;2022-11-20T20:39:35;15.30;;;5.27;;
5217;SDS011;26539;51.064;6.346;2022-11-20T20:42:07;14.23;;;5.80;;
5217;SDS011;26539;51.064;6.346;2022-11-20T20:44:40;15.60;;;5.55;;
5217;SDS011;26539;51.064;6.346;2022-11-20T20:47:38;19.97;;;5.77;;
5217;SDS011;26539;51.064;6.346;2022-11-20T20:50:15;23.40;;;6.60;;
5217;SDS011;26539;51.064;6.346;2022-11-20T20:52:42;15.90;;;4.90;;
5217;SDS011;26539;51.064;6.346;2022-11-20T20:55:14;16.45;;;4.97;;
5217;SDS011;26539;51.064;6.346;2022-11-20T20:58:08;17.95;;;4.70;;
5217;SDS011;26539;51.064;6.346;2022-11-20T21:00:44;12.90;;;4.87;;
5217;SDS011;26539;51.064;6.346;2022-11-20T21:03:33;19.33;;;4.75;;
5217;SDS011;26539;51.064;6.346;2022-11-20T21:06:26;13.65;;;4.13;;
5217;SDS011;26539;51.064;6.346;2022-11-20T21:09:14;19.00;;;5.05;;
5217;SDS011;26539;51.064;6.346;2022-11-20T21:11:47;16.47;;;4.80;;
5217;SDS011;26539;51.064;6.346;2022-11-20T21:14:28;13.30;;;4.45;;
5217;SDS011;26539;51.064;6.346;2022-11-20T21:16:54;17.98;;;4.03;;
5217;SDS011;26539;51.064;6.346;2022-11-20T21:19:30;19.55;;;5.25;;
5217;SDS011;26539;51.064;6.346;2022-11-20T21:25:13;13.65;;;4.15;;
5217;SDS011;26539;51.064;6.346;2022-11-20T21:27:41;13.75;;;3.97;;
5217;SDS011;26539;51.064;6.346;2022-11-20T21:30:07;14.47;;;4.80;;
5217;SDS011;26539;51.064;6.346;2022-11-20T21:32:36;17.17;;;4.70;;
5217;SDS011;26539;51.064;6.346;2022-11-20T21:35:19;11.48;;;4.10;;
5217;SDS011;26539;51.064;6.346;2022-11-20T21:37:55;16.08;;;5.32;;
5217;SDS011;26539;51.064;6.346;2022-11-20T21:40:20;15.23;;;4.35;;
5217;SDS011;26539;51.064;6.346;2022-11-20T21:42:57;20.10;;;4.20;;
5217;SDS011;26539;51.064;6.346;2022-11-20T21:45:43;9.52;;;3.85;;
5217;SDS011;26539;51.064;6.346;2022-11-20T21:48:26;11.48;;;4.22;;
5217;SDS011;26539;51.064;6.346;2022-11-20T21:51:06;17.10;;;4.22;;
5217;SDS011;26539;51.064;6.346;2022-11-20T21:53:38;13.57;;;5.15;;
5217;SDS011;26539;51.064;6.346;2022-11-20T21:56:10;14.32;;;5.78;;
5217;SDS011;26539;51.064;6.346;2022-11-20T21:58:43;9.00;;;4.32;;
5217;SDS011;26539;51.064;6.346;2022-11-20T22:01:38;19.70;;;5.50;;
5217;SDS011;26539;51.064;6.346;2022-11-20T22:04:19;19.98;;;5.28;;